createdAt,value
2024-03-03T00:01:20.940Z,37.78
2024-03-03T00:03:51.297Z,35.33
2024-03-03T00:06:21.685Z,31.45
2024-03-03T00:08:52.304Z,31.25
2024-03-03T00:11:22.892Z,29.90
2024-03-03T00:13:56.578Z,27.70
2024-03-03T00:16:27.891Z,29.77
2024-03-03T00:21:26.606Z,26.83
2024-03-03T00:24:00.368Z,26.88
2024-03-03T00:26:27.689Z,28.75
2024-03-03T00:28:55.620Z,27.45
2024-03-03T00:31:26.318Z,28.30
2024-03-03T00:33:54.035Z,28.13
2024-03-03T00:36:21.694Z,28.02
2024-03-03T00:38:52.658Z,30.27
2024-03-03T00:41:20.050Z,31.40
2024-03-03T00:43:47.433Z,31.63
2024-03-03T00:46:14.872Z,28.67
2024-03-03T00:48:42.309Z,25.45
2024-03-03T00:51:09.796Z,23.52
2024-03-03T00:53:37.332Z,23.13
2024-03-03T00:56:09.013Z,24.63
2024-03-03T00:58:37.310Z,23.40
2024-03-03T01:01:04.719Z,24.55
2024-03-03T01:03:33.174Z,25.98
2024-03-03T01:06:00.673Z,26.13
2024-03-03T01:08:27.839Z,25.83
2024-03-03T01:10:54.953Z,25.65
2024-03-03T01:13:22.219Z,25.23
2024-03-03T01:15:49.530Z,25.30
2024-03-03T01:18:17.044Z,24.58
2024-03-03T01:20:44.222Z,25.55
2024-03-03T01:23:12.985Z,26.15
2024-03-03T01:25:40.291Z,26.80
2024-03-03T01:28:07.514Z,26.10
2024-03-03T01:30:34.668Z,24.83
2024-03-03T01:33:01.952Z,26.90
2024-03-03T01:35:29.011Z,26.85
2024-03-03T01:37:56.200Z,26.50
2024-03-03T01:40:23.724Z,24.63
2024-03-03T01:42:56.310Z,27.17
2024-03-03T01:45:24.807Z,27.45
2024-03-03T01:47:53.786Z,26.63
2024-03-03T01:50:22.708Z,26.92
2024-03-03T01:52:52.074Z,26.52
2024-03-03T01:55:21.960Z,26.90
2024-03-03T01:57:51.921Z,27.27
2024-03-03T02:00:22.321Z,28.88
2024-03-03T02:02:50.817Z,28.95
2024-03-03T02:05:19.931Z,26.48
2024-03-03T02:07:48.103Z,25.65
2024-03-03T02:10:17.226Z,27.38
2024-03-03T02:12:48.036Z,25.45
2024-03-03T02:15:18.232Z,24.83
2024-03-03T02:17:45.582Z,25.80
2024-03-03T02:20:12.999Z,25.77
2024-03-03T02:22:40.201Z,25.25
2024-03-03T02:25:10.157Z,26.67
2024-03-03T02:27:41.295Z,26.95
2024-03-03T02:30:12.739Z,27.27
2024-03-03T02:32:40.770Z,26.90
2024-03-03T02:35:11.726Z,26.98
2024-03-03T02:37:50.197Z,28.33
2024-03-03T02:40:25.510Z,27.67
2024-03-03T02:43:08.461Z,28.15
2024-03-03T02:45:43.762Z,27.17
2024-03-03T02:48:12.415Z,28.17
2024-03-03T02:50:46.007Z,29.90
2024-03-03T02:53:22.902Z,27.48
2024-03-03T02:55:52.842Z,26.75
2024-03-03T02:58:25.276Z,25.05
2024-03-03T03:00:57.380Z,26.55
2024-03-03T03:03:32.608Z,26.02
2024-03-03T03:06:02.065Z,25.20
2024-03-03T03:08:43.163Z,25.98
2024-03-03T03:11:23.904Z,27.05
2024-03-03T03:14:03.303Z,27.98
2024-03-03T03:16:44.369Z,31.10
2024-03-03T03:19:15.566Z,28.00
2024-03-03T03:21:46.072Z,27.77
2024-03-03T03:24:17.026Z,26.70
2024-03-03T03:26:53.027Z,27.30
2024-03-03T03:29:32.252Z,28.13
2024-03-03T03:32:06.067Z,26.40
2024-03-03T03:34:39.967Z,28.58
2024-03-03T03:37:14.981Z,27.60
2024-03-03T03:39:51.613Z,26.27
2024-03-03T03:42:39.668Z,27.05
2024-03-03T03:45:16.987Z,25.67
2024-03-03T03:47:49.170Z,27.70
2024-03-03T03:50:22.558Z,28.10
2024-03-03T03:52:52.446Z,28.67
2024-03-03T03:55:29.041Z,27.42
2024-03-03T03:58:00.881Z,28.90
2024-03-03T04:00:31.797Z,27.20
2024-03-03T04:03:02.381Z,27.45
2024-03-03T04:05:44.220Z,26.52
2024-03-03T04:08:41.238Z,27.00
2024-03-03T04:11:17.972Z,27.90
2024-03-03T04:13:50.266Z,26.85
2024-03-03T04:16:22.935Z,25.73
2024-03-03T04:18:54.040Z,27.60
2024-03-03T04:21:29.549Z,28.92
2024-03-03T04:24:05.665Z,26.75
2024-03-03T04:26:33.488Z,27.65
2024-03-03T04:29:03.368Z,26.13
2024-03-03T04:31:46.091Z,28.17
2024-03-03T04:34:18.307Z,28.95
2024-03-03T04:36:54.557Z,26.10
2024-03-03T04:39:22.828Z,25.00
2024-03-03T04:41:55.915Z,25.60
2024-03-03T04:44:33.929Z,27.35
2024-03-03T04:47:13.100Z,26.92
2024-03-03T04:49:48.737Z,27.98
2024-03-03T04:52:23.174Z,26.90
2024-03-03T04:55:00.989Z,26.70
2024-03-03T04:57:33.301Z,29.23
2024-03-03T05:00:11.671Z,29.23
2024-03-03T05:05:29.264Z,26.60
2024-03-03T05:07:57.726Z,28.48
2024-03-03T05:10:27.952Z,28.38
2024-03-03T05:12:58.304Z,28.60
2024-03-03T05:15:33.132Z,29.35
2024-03-03T05:18:34.681Z,27.30
2024-03-03T05:23:49.084Z,28.77
2024-03-03T05:26:26.440Z,27.42
2024-03-03T05:29:12.108Z,28.50
2024-03-03T05:31:46.510Z,31.63
2024-03-03T05:34:26.823Z,29.30
2024-03-03T05:37:00.489Z,26.67
2024-03-03T05:39:36.128Z,25.33
2024-03-03T05:42:15.147Z,25.70
2024-03-03T05:44:48.916Z,26.05
2024-03-03T05:47:20.099Z,27.58
2024-03-03T05:49:50.712Z,25.55
2024-03-03T05:52:24.960Z,28.08
2024-03-03T05:54:58.702Z,29.02
2024-03-03T05:57:33.216Z,27.20
2024-03-03T06:00:09.021Z,29.60
2024-03-03T06:02:43.839Z,29.02
2024-03-03T06:05:17.591Z,27.30
2024-03-03T06:07:50.466Z,28.27
2024-03-03T06:10:20.799Z,28.73
2024-03-03T06:13:24.545Z,26.77
2024-03-03T06:15:52.888Z,24.85
2024-03-03T06:18:32.579Z,26.02
2024-03-03T06:21:09.583Z,25.83
2024-03-03T06:23:57.576Z,24.95
2024-03-03T06:26:39.829Z,25.30
2024-03-03T06:29:25.543Z,24.92
2024-03-03T06:32:24.633Z,24.25
2024-03-03T06:35:08.229Z,24.17
2024-03-03T06:37:54.712Z,25.67
2024-03-03T06:40:29.455Z,24.45
2024-03-03T06:43:01.503Z,23.42
2024-03-03T06:45:52.585Z,24.10
2024-03-03T06:48:37.684Z,24.27
2024-03-03T06:51:14.314Z,24.38
2024-03-03T06:53:47.657Z,25.48
2024-03-03T06:56:36.020Z,24.50
2024-03-03T06:59:58.745Z,26.42
2024-03-03T07:03:02.445Z,25.58
2024-03-03T07:05:34.747Z,25.55
2024-03-03T07:08:34.620Z,27.27
2024-03-03T07:11:12.017Z,27.10
2024-03-03T07:13:43.516Z,26.83
2024-03-03T07:16:23.985Z,27.40
2024-03-03T07:19:04.025Z,27.87
2024-03-03T07:21:36.366Z,26.17
2024-03-03T07:24:18.363Z,26.10
2024-03-03T07:26:55.119Z,31.20
2024-03-03T07:29:28.387Z,26.67
2024-03-03T07:32:02.697Z,32.50
2024-03-03T07:34:38.594Z,37.75
2024-03-03T07:37:14.230Z,27.08
2024-03-03T07:39:50.909Z,48.92
2024-03-03T07:42:30.026Z,36.72
2024-03-03T07:45:05.702Z,37.05
2024-03-03T07:47:40.709Z,28.45
2024-03-03T07:50:19.141Z,25.35
2024-03-03T07:53:03.621Z,26.85
2024-03-03T07:55:37.802Z,25.45
2024-03-03T07:58:15.850Z,26.65
2024-03-03T08:01:15.248Z,26.98
2024-03-03T08:03:50.316Z,25.95
2024-03-03T08:06:28.884Z,26.83
2024-03-03T08:09:05.553Z,26.35
2024-03-03T08:11:36.537Z,25.90
2024-03-03T08:14:11.474Z,23.65
2024-03-03T08:16:44.810Z,25.90
2024-03-03T08:19:20.115Z,21.58
2024-03-03T08:22:02.376Z,23.50
2024-03-03T08:24:39.035Z,24.65
2024-03-03T08:27:20.815Z,23.98
2024-03-03T08:30:24.113Z,22.50
2024-03-03T08:33:06.702Z,22.15
2024-03-03T08:35:43.812Z,21.30
2024-03-03T08:41:10.077Z,21.63
2024-03-03T08:43:48.195Z,21.33
2024-03-03T08:46:34.114Z,20.73
2024-03-03T08:49:20.954Z,21.15
2024-03-03T08:52:00.304Z,18.42
2024-03-03T08:54:37.595Z,19.77
2024-03-03T08:57:15.517Z,17.55
2024-03-03T08:59:46.310Z,16.67
2024-03-03T09:02:13.514Z,20.67
2024-03-03T09:04:40.529Z,17.67
2024-03-03T09:07:09.300Z,18.13
2024-03-03T09:09:40.902Z,19.10
2024-03-03T09:12:09.918Z,18.52
2024-03-03T09:14:36.963Z,15.60
2024-03-03T09:17:03.942Z,15.90
2024-03-03T09:19:30.951Z,15.75
2024-03-03T09:21:57.819Z,13.98
2024-03-03T09:24:26.687Z,15.63
2024-03-03T09:26:53.707Z,15.30
2024-03-03T09:29:23.989Z,14.88
2024-03-03T09:31:55.763Z,13.25
2024-03-03T09:34:23.852Z,13.20
2024-03-03T09:36:51.139Z,13.25
2024-03-03T09:39:18.402Z,14.40
2024-03-03T09:41:45.444Z,14.68
2024-03-03T09:44:21.113Z,16.13
2024-03-03T09:46:49.739Z,15.13
2024-03-03T09:49:24.381Z,15.35
2024-03-03T09:51:51.490Z,15.73
2024-03-03T09:54:19.688Z,15.88
2024-03-03T09:56:49.039Z,16.05
2024-03-03T09:59:22.607Z,16.38
2024-03-03T10:01:57.132Z,15.27
2024-03-03T10:04:26.788Z,15.85
2024-03-03T10:06:56.454Z,17.70
2024-03-03T10:09:26.364Z,16.10
2024-03-03T10:11:56.426Z,14.90
2024-03-03T10:14:25.673Z,15.73
2024-03-03T10:16:52.723Z,15.38
2024-03-03T10:19:20.182Z,15.18
2024-03-03T10:21:48.813Z,15.48
2024-03-03T10:24:23.380Z,14.70
2024-03-03T10:26:54.716Z,14.50
2024-03-03T10:31:49.666Z,14.68
2024-03-03T10:34:24.107Z,15.10
2024-03-03T10:37:08.157Z,14.23
2024-03-03T10:39:42.687Z,14.70
2024-03-03T10:42:11.467Z,14.70
2024-03-03T10:44:42.480Z,14.90
2024-03-03T10:47:20.514Z,15.87
2024-03-03T10:49:50.135Z,15.20
2024-03-03T10:52:18.999Z,15.52
2024-03-03T10:54:46.243Z,14.82
2024-03-03T10:57:17.658Z,14.27
2024-03-03T10:59:45.726Z,15.65
2024-03-03T11:02:15.644Z,14.75
2024-03-03T11:04:44.029Z,13.27
2024-03-03T11:07:12.253Z,15.00
2024-03-03T11:09:45.870Z,14.60
2024-03-03T11:12:18.543Z,13.88
2024-03-03T11:14:46.955Z,14.80
2024-03-03T11:18:51.769Z,15.68
2024-03-03T11:21:03.285Z,15.10
2024-03-03T11:23:42.369Z,15.38
2024-03-03T11:26:24.285Z,16.55
2024-03-03T11:28:57.747Z,16.17
2024-03-03T11:31:25.633Z,15.05
2024-03-03T11:33:54.402Z,15.45
2024-03-03T11:36:22.717Z,15.40
2024-03-03T11:38:49.774Z,13.88
2024-03-03T11:41:21.787Z,14.75
2024-03-03T11:43:52.245Z,14.88
2024-03-03T11:46:51.104Z,15.43
2024-03-03T11:49:19.612Z,15.07
2024-03-03T11:51:46.777Z,16.30
2024-03-03T11:54:14.942Z,14.30
2024-03-03T11:56:51.325Z,15.65
2024-03-03T11:59:18.555Z,14.85
2024-03-03T12:01:49.283Z,16.48
2024-03-03T12:04:17.112Z,15.77
2024-03-03T12:06:44.379Z,13.30
2024-03-03T12:09:12.182Z,12.50
2024-03-03T12:11:39.558Z,13.32
2024-03-03T12:14:08.332Z,12.65
2024-03-03T12:16:35.462Z,14.02
2024-03-03T12:19:02.757Z,13.07
2024-03-03T12:21:30.219Z,12.85
2024-03-03T12:23:57.926Z,12.98
2024-03-03T12:26:24.898Z,12.25
2024-03-03T12:28:52.165Z,13.55
2024-03-03T12:31:22.444Z,15.05
2024-03-03T12:33:50.420Z,13.77
2024-03-03T12:36:17.950Z,14.35
2024-03-03T12:38:47.604Z,15.18
2024-03-03T12:41:15.813Z,15.50
2024-03-03T12:43:42.698Z,15.70
2024-03-03T12:46:10.016Z,15.40
2024-03-03T12:48:36.793Z,13.85
2024-03-03T12:51:04.156Z,13.70
2024-03-03T12:53:39.215Z,32.78
2024-03-03T12:56:21.824Z,27.98
2024-03-03T12:58:49.781Z,15.15
2024-03-03T13:01:18.481Z,14.25
2024-03-03T13:03:48.028Z,14.75
2024-03-03T13:06:18.406Z,14.70
2024-03-03T13:08:46.856Z,14.32
2024-03-03T13:11:14.728Z,13.63
2024-03-03T13:13:42.064Z,13.45
2024-03-03T13:16:10.592Z,15.10
2024-03-03T13:18:38.012Z,13.50
2024-03-03T13:21:17.681Z,15.02
2024-03-03T13:23:44.555Z,14.27
2024-03-03T13:26:11.958Z,13.23
2024-03-03T13:28:39.730Z,14.48
2024-03-03T13:31:07.780Z,13.20
2024-03-03T13:33:40.174Z,13.00
2024-03-03T13:36:11.221Z,13.82
2024-03-03T13:38:38.709Z,13.35
2024-03-03T13:41:06.084Z,15.18
2024-03-03T13:43:36.215Z,14.85
2024-03-03T13:46:03.286Z,14.20
2024-03-03T13:48:30.341Z,13.20
2024-03-03T13:50:59.384Z,14.82
2024-03-03T13:53:27.498Z,13.52
2024-03-03T13:55:54.541Z,31.20
2024-03-03T13:58:21.694Z,17.90
2024-03-03T14:00:49.376Z,14.13
2024-03-03T14:03:16.328Z,17.70
2024-03-03T14:05:43.920Z,13.45
2024-03-03T14:08:13.994Z,14.70
2024-03-03T14:10:40.987Z,13.65
2024-03-03T14:13:07.967Z,12.75
2024-03-03T14:15:35.024Z,13.02
2024-03-03T14:18:02.949Z,16.30
2024-03-03T14:20:30.141Z,15.23
2024-03-03T14:22:57.500Z,14.18
2024-03-03T14:25:26.366Z,13.65
2024-03-03T14:28:01.536Z,13.23
2024-03-03T14:30:36.640Z,15.90
2024-03-03T14:33:05.977Z,14.52
2024-03-03T14:35:33.391Z,14.32
2024-03-03T14:38:00.172Z,13.90
2024-03-03T14:40:27.013Z,17.15
2024-03-03T14:42:54.740Z,14.20
2024-03-03T14:45:22.256Z,14.02
2024-03-03T14:47:49.491Z,14.32
2024-03-03T14:50:17.091Z,14.02
2024-03-03T14:52:43.886Z,13.43
2024-03-03T14:55:11.669Z,12.98
2024-03-03T14:57:38.853Z,16.90
2024-03-03T15:00:07.052Z,15.60
2024-03-03T15:02:36.729Z,13.77
2024-03-03T15:05:07.487Z,17.52
2024-03-03T15:07:34.696Z,16.23
2024-03-03T15:10:01.750Z,15.85
2024-03-03T15:12:28.648Z,16.63
2024-03-03T15:14:55.729Z,17.05
2024-03-03T15:17:22.698Z,15.70
2024-03-03T15:19:49.744Z,15.90
2024-03-03T15:22:17.055Z,22.40
2024-03-03T15:24:46.321Z,22.45
2024-03-03T15:27:13.670Z,19.98
2024-03-03T15:29:43.543Z,13.63
2024-03-03T15:32:11.090Z,13.32
2024-03-03T15:34:37.980Z,11.90
2024-03-03T15:37:05.191Z,14.50
2024-03-03T15:39:34.411Z,12.93
2024-03-03T15:42:03.206Z,13.60
2024-03-03T15:44:30.813Z,15.70
2024-03-03T15:46:57.614Z,15.00
2024-03-03T15:49:24.646Z,13.32
2024-03-03T15:51:51.711Z,12.27
2024-03-03T15:54:18.690Z,13.63
2024-03-03T15:56:45.969Z,13.05
2024-03-03T15:59:12.917Z,17.98
2024-03-03T16:01:40.847Z,16.02
2024-03-03T16:04:07.818Z,15.45
2024-03-03T16:06:35.243Z,15.70
2024-03-03T16:09:05.009Z,19.27
2024-03-03T16:11:32.505Z,27.42
2024-03-03T16:13:59.668Z,26.20
2024-03-03T16:16:28.293Z,18.77
2024-03-03T16:19:02.013Z,18.02
2024-03-03T16:21:54.488Z,18.40
2024-03-03T16:24:24.356Z,26.77
2024-03-03T16:26:51.356Z,23.63
2024-03-03T16:29:18.287Z,20.67
2024-03-03T16:31:45.684Z,20.17
2024-03-03T16:34:12.654Z,22.48
2024-03-03T16:36:39.767Z,30.77
2024-03-03T16:39:08.364Z,82.28
2024-03-03T16:41:35.874Z,88.55
2024-03-03T16:44:04.350Z,57.90
2024-03-03T16:46:31.802Z,44.20
2024-03-03T16:48:59.433Z,40.33
2024-03-03T16:51:26.437Z,57.72
2024-03-03T16:53:53.936Z,71.32
2024-03-03T16:56:21.794Z,68.72
2024-03-03T16:58:48.860Z,45.90
2024-03-03T17:01:15.985Z,41.90
2024-03-03T17:03:45.607Z,29.23
2024-03-03T17:06:12.431Z,28.05
2024-03-03T17:08:39.619Z,28.80
2024-03-03T17:11:08.247Z,37.53
2024-03-03T17:13:35.496Z,35.90
2024-03-03T17:16:02.494Z,30.13
2024-03-03T17:18:30.502Z,30.48
2024-03-03T17:20:57.374Z,28.10
2024-03-03T17:23:27.299Z,30.48
2024-03-03T17:25:54.333Z,30.02
2024-03-03T17:28:21.347Z,28.83
2024-03-03T17:30:48.416Z,27.13
2024-03-03T17:33:15.530Z,24.90
2024-03-03T17:35:42.628Z,22.10
2024-03-03T17:38:09.548Z,21.02
2024-03-03T17:40:36.756Z,23.45
2024-03-03T17:43:04.131Z,24.83
2024-03-03T17:45:31.307Z,24.95
2024-03-03T17:47:58.327Z,26.75
2024-03-03T17:50:25.333Z,26.23
2024-03-03T17:52:52.231Z,38.83
2024-03-03T17:55:19.160Z,42.95
2024-03-03T17:57:50.749Z,43.92
2024-03-03T18:00:18.893Z,132.15
2024-03-03T18:02:46.321Z,101.03
2024-03-03T18:05:13.303Z,86.75
2024-03-03T18:07:41.065Z,73.85
2024-03-03T18:10:08.948Z,60.55
2024-03-03T18:12:36.205Z,58.42
2024-03-03T18:15:05.325Z,70.18
2024-03-03T18:17:34.805Z,69.43
2024-03-03T18:20:01.903Z,75.45
2024-03-03T18:22:28.892Z,82.00
2024-03-03T18:24:56.070Z,50.20
2024-03-03T18:27:24.104Z,40.42
2024-03-03T18:29:51.906Z,37.63
2024-03-03T18:32:19.433Z,37.47
2024-03-03T18:34:49.165Z,43.10
2024-03-03T18:37:16.013Z,48.15
2024-03-03T18:39:42.946Z,48.80
2024-03-03T18:42:12.959Z,40.70
2024-03-03T18:44:41.277Z,38.22
2024-03-03T18:47:09.180Z,34.33
2024-03-03T18:50:26.030Z,30.63
2024-03-03T18:52:53.834Z,32.88
2024-03-03T18:55:20.901Z,37.50
2024-03-03T18:57:49.449Z,29.27
2024-03-03T19:00:19.567Z,26.05
2024-03-03T19:02:46.480Z,24.55
2024-03-03T19:05:13.715Z,24.55
2024-03-03T19:07:40.852Z,19.73
2024-03-03T19:10:08.800Z,19.42
2024-03-03T19:12:35.778Z,19.80
2024-03-03T19:15:03.179Z,17.50
2024-03-03T19:17:30.022Z,15.75
2024-03-03T19:19:58.313Z,15.55
2024-03-03T19:22:25.197Z,14.95
2024-03-03T19:24:52.149Z,16.02
2024-03-03T19:27:19.094Z,16.98
2024-03-03T19:29:45.972Z,16.70
2024-03-03T19:32:12.845Z,18.08
2024-03-03T19:34:41.501Z,14.20
2024-03-03T19:37:10.043Z,14.32
2024-03-03T19:39:37.094Z,14.60
2024-03-03T19:42:05.489Z,14.57
2024-03-03T19:44:32.386Z,15.48
2024-03-03T19:47:25.725Z,16.27
2024-03-03T19:50:03.128Z,19.02
2024-03-03T19:52:45.745Z,18.90
2024-03-03T19:55:12.879Z,18.40
2024-03-03T19:57:39.852Z,19.00
2024-03-03T20:00:15.792Z,17.30
2024-03-03T20:02:44.084Z,19.23
2024-03-03T20:05:11.144Z,19.05
2024-03-03T20:07:38.498Z,18.83
2024-03-03T20:10:08.091Z,18.48
2024-03-03T20:12:34.995Z,18.58
2024-03-03T20:15:03.211Z,18.65
2024-03-03T20:17:30.519Z,21.98
2024-03-03T20:19:58.021Z,19.88
2024-03-03T20:22:26.944Z,18.40
2024-03-03T20:24:54.034Z,19.15
2024-03-03T20:27:22.704Z,23.58
2024-03-03T20:29:49.784Z,23.45
2024-03-03T20:32:16.710Z,25.30
2024-03-03T20:34:43.655Z,27.63
2024-03-03T20:37:10.773Z,25.45
2024-03-03T20:39:37.781Z,23.95
2024-03-03T20:42:07.139Z,23.98
2024-03-03T20:44:34.084Z,18.63
2024-03-03T20:47:01.037Z,21.63
2024-03-03T20:49:28.086Z,21.63
2024-03-03T20:51:55.062Z,21.23
2024-03-03T20:54:22.370Z,17.95
2024-03-03T20:56:49.270Z,19.15
2024-03-03T20:59:16.282Z,18.80
2024-03-03T21:01:43.350Z,20.08
2024-03-03T21:04:31.615Z,20.38
2024-03-03T21:07:05.346Z,20.60
2024-03-03T21:09:58.065Z,19.15
2024-03-03T21:12:25.166Z,19.90
2024-03-03T21:14:52.094Z,20.02
2024-03-03T21:17:19.138Z,20.58
2024-03-03T21:19:46.503Z,20.80
2024-03-03T21:22:14.590Z,19.90
2024-03-03T21:24:41.499Z,19.05
2024-03-03T21:27:09.029Z,18.27
2024-03-03T21:29:36.998Z,17.38
2024-03-03T21:32:04.035Z,17.13
2024-03-03T21:34:31.134Z,14.95
2024-03-03T21:36:58.570Z,14.13
2024-03-03T21:39:26.213Z,14.52
2024-03-03T21:41:53.556Z,16.73
2024-03-03T21:44:20.704Z,20.65
2024-03-03T21:46:47.748Z,20.85
2024-03-03T21:49:15.298Z,24.70
2024-03-03T21:51:42.432Z,23.20
2024-03-03T21:54:09.324Z,18.20
2024-03-03T21:56:36.768Z,19.17
2024-03-03T21:59:03.705Z,15.43
2024-03-03T22:01:30.609Z,16.70
2024-03-03T22:03:57.745Z,17.92
2024-03-03T22:06:24.720Z,19.05
2024-03-03T22:08:56.820Z,16.33
2024-03-03T22:11:25.195Z,16.25
2024-03-03T22:13:52.119Z,15.00
2024-03-03T22:16:19.049Z,18.95
2024-03-03T22:18:47.196Z,21.70
2024-03-03T22:21:14.344Z,19.90
2024-03-03T22:23:41.303Z,20.20
2024-03-03T22:26:08.413Z,13.75
2024-03-03T22:28:35.348Z,14.98
2024-03-03T22:31:02.451Z,15.57
2024-03-03T22:33:29.639Z,14.57
2024-03-03T22:35:56.570Z,14.57
2024-03-03T22:38:23.784Z,13.98
2024-03-03T22:40:50.882Z,18.73
2024-03-03T22:43:18.390Z,19.45
2024-03-03T22:45:45.387Z,16.02
2024-03-03T22:48:12.457Z,17.15
2024-03-03T22:50:41.305Z,17.05
2024-03-03T22:53:10.329Z,16.75
2024-03-03T22:55:37.715Z,16.88
2024-03-03T22:58:04.942Z,15.23
2024-03-03T23:00:33.769Z,15.90
2024-03-03T23:03:00.653Z,16.98
2024-03-03T23:05:27.773Z,16.42
2024-03-03T23:07:54.786Z,15.95
2024-03-03T23:10:22.190Z,16.08
2024-03-03T23:12:50.388Z,15.02
2024-03-03T23:15:17.344Z,17.13
2024-03-03T23:17:44.424Z,16.38
2024-03-03T23:20:11.859Z,16.40
2024-03-03T23:22:39.092Z,19.00
2024-03-03T23:25:10.491Z,16.23
2024-03-03T23:27:38.511Z,15.63
2024-03-03T23:30:16.137Z,16.80
2024-03-03T23:36:22.294Z,14.35
2024-03-03T23:38:50.660Z,15.40
2024-03-03T23:41:17.616Z,13.63
2024-03-03T23:43:44.646Z,12.88
2024-03-03T23:46:12.434Z,13.95
2024-03-03T23:48:39.612Z,13.23
2024-03-03T23:51:07.614Z,14.15
2024-03-03T23:53:35.426Z,12.35
2024-03-03T23:56:04.847Z,12.63
2024-03-03T23:58:31.993Z,13.73
